Wetterdaten: Woche 24.12.01 - 30.12.01 (KW52)
Datum Zeit Temperatur Luftfeuchte Luftdruck Regenmenge Wind Richtung Taupunkt Windchill
24.12.2001 00:00 -8.7 C 67 % 1018.1 hPa 0.0 l/m 2.3 km/h (1 Bft) O-SO -13.7 C -9.8 C
24.12.2001 01:00 -11.2 C 73 % 1017.7 hPa 0.0 l/m 0.5 km/h (0 Bft) SO -15.1 C -11.2 C
24.12.2001 02:00 -13.3 C 75 % 1017.5 hPa 0.0 l/m 0.1 km/h (0 Bft) O-SO -16.8 C -13.3 C
24.12.2001 03:00 -14.3 C 76 % 1018.1 hPa 0.0 l/m 4.0 km/h (1 Bft) O-SO -17.6 C -16.5 C
24.12.2001 04:00 -15.5 C 76 % 1018.1 hPa 0.0 l/m 2.6 km/h (1 Bft) O-SO -18.8 C -17.1 C
24.12.2001 05:00 -16.4 C 74 % 1018.1 hPa 0.0 l/m 1.7 km/h (1 Bft) O-SO -19.9 C -17.1 C
24.12.2001 06:00 -15.7 C 75 % 1018.1 hPa 0.0 l/m 1.1 km/h (1 Bft) O-SO -19.1 C -15.9 C
24.12.2001 07:00 -14.5 C 73 % 1018.1 hPa 0.0 l/m 0.0 km/h (0 Bft) N -18.2 C -14.5 C
24.12.2001 08:00 -13.9 C 74 % 1018.1 hPa 0.0 l/m 0.3 km/h (0 Bft) O-SO -17.5 C -13.9 C
24.12.2001 09:00 -14.0 C 72 % 1018.1 hPa 0.0 l/m 1.2 km/h (1 Bft) SO -17.9 C -14.0 C
24.12.2001 10:00 -13.2 C 70 % 1018.1 hPa 0.0 l/m 5.2 km/h (1 Bft) O-SO -17.4 C -16.1 C
24.12.2001 11:00 -11.0 C 67 % 1017.9 hPa 0.0 l/m 5.0 km/h (1 Bft) O-SO -15.9 C -13.3 C
24.12.2001 12:00 -8.7 C 64 % 1017.1 hPa 0.0 l/m 6.4 km/h (2 Bft) O-SO -14.2 C -12.0 C
24.12.2001 13:00 -6.2 C 65 % 1016.2 hPa 0.0 l/m 7.8 km/h (2 Bft) SO -11.7 C -9.4 C
24.12.2001 14:00 -4.8 C 62 % 1016.0 hPa 0.0 l/m 11.9 km/h (2 Bft) S-SO -11.0 C -9.5 C
24.12.2001 15:00 -4.7 C 62 % 1016.0 hPa 0.0 l/m 9.4 km/h (2 Bft) S -10.9 C -8.4 C
24.12.2001 16:00 -5.2 C 62 % 1015.5 hPa 0.0 l/m 5.1 km/h (1 Bft) S -11.2 C -6.8 C
24.12.2001 17:00 -5.5 C 65 % 1015.4 hPa 0.0 l/m 3.8 km/h (1 Bft) W -11.1 C -6.8 C
24.12.2001 18:00 -5.3 C 65 % 1014.9 hPa 0.0 l/m 4.1 km/h (1 Bft) SW -10.9 C -6.8 C
24.12.2001 19:00 -5.1 C 67 % 1014.9 hPa 0.0 l/m 4.3 km/h (1 Bft) SW -10.2 C -6.8 C
24.12.2001 20:00 -4.7 C 69 % 1014.4 hPa 0.0 l/m 4.9 km/h (1 Bft) SW -9.6 C -6.3 C
24.12.2001 21:00 -4.3 C 66 % 1013.9 hPa 0.0 l/m 9.4 km/h (2 Bft) SW -9.8 C -7.9 C
24.12.2001 22:00 -4.1 C 65 % 1013.7 hPa 0.0 l/m 6.3 km/h (2 Bft) S -9.8 C -6.3 C
24.12.2001 23:00 -3.6 C 67 % 1012.9 hPa 0.0 l/m 12.8 km/h (3 Bft) S-SW -8.9 C -8.1 C
25.12.2001 00:00 -4.1 C 71 % 1012.8 hPa 0.0 l/m 2.1 km/h (1 Bft) SW -8.6 C -4.7 C
25.12.2001 01:00 -4.7 C 85 % 1012.0 hPa 0.0 l/m 1.1 km/h (0 Bft) SO -6.9 C -5.0 C
25.12.2001 02:00 -3.6 C 85 % 1011.8 hPa 0.3 l/m 2.1 km/h (1 Bft) SW -5.8 C -4.4 C
25.12.2001 03:00 -2.8 C 78 % 1011.1 hPa 0.3 l/m 3.1 km/h (1 Bft) W-NW -6.1 C -3.6 C
25.12.2001 04:00 -2.5 C 76 % 1010.1 hPa 0.0 l/m 2.2 km/h (1 Bft) W-SW -6.1 C -3.1 C
25.12.2001 05:00 -2.9 C 80 % 1009.3 hPa 0.0 l/m 0.3 km/h (0 Bft) O-NO -5.8 C -3.0 C
25.12.2001 06:00 -1.9 C 80 % 1008.7 hPa 0.0 l/m 9.4 km/h (2 Bft) S -5.0 C -4.6 C
25.12.2001 07:00 -0.5 C 73 % 1008.7 hPa 0.0 l/m 19.5 km/h (3 Bft) SW -4.8 C -5.7 C
25.12.2001 08:00 0.5 C 72 % 1008.0 hPa 0.0 l/m 25.2 km/h (4 Bft) W -3.9 C -4.9 C
25.12.2001 09:00 0.3 C 70 % 1008.0 hPa 0.0 l/m 23.0 km/h (4 Bft) S -4.6 C -5.3 C
25.12.2001 10:00 1.0 C 66 % 1006.8 hPa 0.0 l/m 21.7 km/h (4 Bft) S -4.5 C -4.0 C
25.12.2001 11:00 1.9 C 63 % 1005.0 hPa 0.0 l/m 19.5 km/h (3 Bft) S-SO -4.4 C -2.6 C
25.12.2001 12:00 2.2 C 63 % 1003.9 hPa 0.0 l/m 18.6 km/h (3 Bft) S -4.0 C -2.2 C
25.12.2001 13:00 2.7 C 63 % 1003.2 hPa 0.0 l/m 19.4 km/h (3 Bft) SW -3.7 C -1.7 C
25.12.2001 14:00 2.8 C 63 % 1002.4 hPa 0.0 l/m 15.1 km/h (3 Bft) W-SW -3.6 C -0.8 C
25.12.2001 15:00 2.8 C 65 % 1002.2 hPa 0.0 l/m 9.5 km/h (2 Bft) W -3.2 C 0.5 C
25.12.2001 16:00 2.8 C 64 % 1001.4 hPa 0.0 l/m 9.0 km/h (2 Bft) W -3.4 C 0.8 C
25.12.2001 17:00 2.6 C 64 % 1000.7 hPa 0.0 l/m 3.0 km/h (1 Bft) O-SO -3.5 C 2.0 C
25.12.2001 18:00 2.6 C 68 % 1000.4 hPa 0.0 l/m 19.1 km/h (3 Bft) W-NW -2.8 C -1.5 C
25.12.2001 19:00 1.2 C 84 % 1000.4 hPa 0.3 l/m 12.1 km/h (2 Bft) W-NW -1.1 C -2.3 C
25.12.2001 20:00 1.2 C 85 % 999.9 hPa 0.0 l/m 1.1 km/h (0 Bft) SW -1.0 C 0.9 C
25.12.2001 21:00 1.2 C 85 % 999.3 hPa 0.9 l/m 4.7 km/h (1 Bft) W-SW -1.0 C 0.0 C
25.12.2001 22:00 0.6 C 92 % 998.7 hPa 0.3 l/m 2.8 km/h (1 Bft) O-SO -0.6 C -0.1 C
25.12.2001 23:00 0.4 C 92 % 998.3 hPa 1.9 l/m 0.3 km/h (0 Bft) W-NW -0.7 C 0.3 C
26.12.2001 00:00 -0.3 C 94 % 998.3 hPa 2.5 l/m 0.4 km/h (0 Bft) SO -1.2 C -0.5 C
26.12.2001 01:00 -0.1 C 95 % 997.2 hPa 0.6 l/m 3.5 km/h (1 Bft) SO -0.8 C -1.0 C
26.12.2001 02:00 0.0 C 96 % 997.2 hPa 0.9 l/m 2.1 km/h (1 Bft) O-SO -0.6 C -0.4 C
26.12.2001 03:00 0.4 C 96 % 997.2 hPa 1.3 l/m 1.6 km/h (1 Bft) W-NW -0.2 C 0.0 C
26.12.2001 04:00 0.3 C 96 % 997.3 hPa 0.9 l/m 6.5 km/h (2 Bft) W-NW -0.3 C -1.6 C
26.12.2001 05:00 0.3 C 95 % 998.2 hPa 0.6 l/m 17.0 km/h (3 Bft) W-NW -0.3 C -3.6 C
26.12.2001 06:00 0.4 C 90 % 998.6 hPa 0.0 l/m 32.7 km/h (5 Bft) W-NW -1.0 C -6.1 C
26.12.2001 07:00 0.3 C 88 % 999.3 hPa 0.0 l/m 26.2 km/h (4 Bft) W-NW -1.4 C -5.6 C
26.12.2001 08:00 0.3 C 86 % 1000.4 hPa 0.0 l/m 36.0 km/h (5 Bft) W-NW -1.7 C -6.6 C
26.12.2001 09:00 0.5 C 85 % 1001.3 hPa 0.0 l/m 24.9 km/h (4 Bft) W-NW -1.8 C -5.2 C
26.12.2001 10:00 0.5 C 83 % 1001.7 hPa 0.0 l/m 32.9 km/h (5 Bft) W-NW -2.1 C -5.9 C
26.12.2001 11:00 0.1 C 83 % 1002.8 hPa 0.0 l/m 15.9 km/h (3 Bft) W-NW -2.4 C -3.9 C
26.12.2001 12:00 -0.1 C 80 % 1003.5 hPa 0.0 l/m 35.1 km/h (5 Bft) W-NW -3.1 C -7.0 C
26.12.2001 13:00 0.0 C 69 % 1003.3 hPa 0.0 l/m 37.4 km/h (5 Bft) W-NW -5.0 C -7.1 C
26.12.2001 14:00 0.0 C 69 % 1003.6 hPa 0.0 l/m 27.2 km/h (4 Bft) W-NW -5.0 C -6.1 C
26.12.2001 15:00 -0.2 C 68 % 1004.5 hPa 0.0 l/m 28.1 km/h (4 Bft) W-NW -5.3 C -6.5 C
26.12.2001 16:00 -0.6 C 69 % 1005.5 hPa 0.0 l/m 21.8 km/h (4 Bft) W-NW -5.5 C -6.0 C
26.12.2001 17:00 -2.1 C 73 % 1005.8 hPa 0.0 l/m 9.9 km/h (2 Bft) W-NW -6.3 C -4.8 C
26.12.2001 18:00 -3.0 C 76 % 1006.6 hPa 0.0 l/m 7.8 km/h (2 Bft) W-NW -6.6 C -5.7 C
26.12.2001 19:00 -3.5 C 78 % 1007.4 hPa 0.0 l/m 1.7 km/h (1 Bft) O-SO -6.7 C -4.1 C
26.12.2001 20:00 -2.5 C 77 % 1007.6 hPa 0.0 l/m 1.7 km/h (1 Bft) O-SO -5.9 C -3.0 C
26.12.2001 21:00 -2.7 C 86 % 1008.0 hPa 0.3 l/m 0.5 km/h (0 Bft) SO -4.8 C -2.9 C
26.12.2001 22:00 -2.8 C 86 % 1008.6 hPa 0.0 l/m 23.2 km/h (4 Bft) W-NW -4.8 C -9.0 C
26.12.2001 23:00 -3.5 C 87 % 1009.4 hPa 0.0 l/m 22.8 km/h (4 Bft) W-NW -5.3 C -10.0 C
27.12.2001 00:00 -3.7 C 83 % 1010.0 hPa 0.0 l/m 19.0 km/h (3 Bft) W-NW -6.1 C -9.3 C
27.12.2001 01:00 -3.1 C 80 % 1010.8 hPa 0.3 l/m 9.1 km/h (2 Bft) W-NW -6.1 C -6.0 C
27.12.2001 02:00 -3.2 C 76 % 1011.4 hPa 0.0 l/m 15.9 km/h (3 Bft) W-NW -6.9 C -8.1 C
27.12.2001 03:00 -3.4 C 76 % 1012.2 hPa 0.0 l/m 6.3 km/h (2 Bft) W -7.0 C -5.6 C
27.12.2001 04:00 -4.0 C 74 % 1012.8 hPa 0.0 l/m 6.2 km/h (2 Bft) W-NW -7.9 C -6.2 C
27.12.2001 05:00 -4.7 C 76 % 1012.8 hPa 0.0 l/m 1.2 km/h (1 Bft) O-SO -8.2 C -5.2 C
27.12.2001 06:00 -4.8 C 78 % 1013.1 hPa 0.0 l/m 4.2 km/h (1 Bft) O-SO -8.0 C -6.4 C
27.12.2001 07:00 -4.5 C 82 % 1013.9 hPa 0.0 l/m 2.0 km/h (1 Bft) SO -7.1 C -4.9 C
27.12.2001 08:00 -4.3 C 84 % 1014.5 hPa 0.0 l/m 3.9 km/h (1 Bft) SO -6.6 C -5.6 C
27.12.2001 09:00 -3.4 C 78 % 1014.9 hPa 0.0 l/m 4.4 km/h (1 Bft) SO -6.8 C -4.7 C
27.12.2001 10:00 -2.3 C 69 % 1015.6 hPa 0.0 l/m 5.2 km/h (1 Bft) S-SW -7.1 C -3.7 C
27.12.2001 11:00 -0.8 C 61 % 1015.4 hPa 0.0 l/m 10.9 km/h (2 Bft) W -7.4 C -4.0 C
27.12.2001 12:00 -0.2 C 60 % 1014.9 hPa 0.0 l/m 12.3 km/h (3 Bft) S -6.9 C -4.0 C
27.12.2001 13:00 -0.3 C 61 % 1013.9 hPa 0.0 l/m 11.9 km/h (2 Bft) SW -6.9 C -3.7 C
27.12.2001 14:00 -0.2 C 60 % 1013.8 hPa 0.0 l/m 11.6 km/h (2 Bft) O-SO -7.0 C -3.6 C
27.12.2001 15:00 -0.5 C 62 % 1012.8 hPa 0.0 l/m 4.5 km/h (1 Bft) S-SW -6.9 C -1.5 C
27.12.2001 16:00 -0.9 C 64 % 1012.4 hPa 0.0 l/m 13.8 km/h (3 Bft) SO -6.9 C -4.9 C
27.12.2001 17:00 -1.2 C 67 % 1011.8 hPa 0.0 l/m 9.6 km/h (2 Bft) SO -6.5 C -4.4 C
27.12.2001 18:00 -0.7 C 69 % 1011.8 hPa 0.0 l/m 10.0 km/h (2 Bft) SW -5.7 C -3.5 C
27.12.2001 19:00 -1.6 C 84 % 1011.5 hPa 0.3 l/m 12.0 km/h (2 Bft) SO -3.9 C -5.3 C
27.12.2001 20:00 -1.7 C 90 % 1010.8 hPa 0.9 l/m 10.2 km/h (2 Bft) SO -3.2 C -4.9 C
27.12.2001 21:00 -1.3 C 88 % 1010.5 hPa 0.3 l/m 14.3 km/h (3 Bft) SO -3.1 C -5.8 C
27.12.2001 22:00 -0.9 C 87 % 1009.7 hPa 0.3 l/m 10.2 km/h (2 Bft) S -2.7 C -4.2 C
27.12.2001 23:00 -0.4 C 88 % 1009.7 hPa 0.9 l/m 7.5 km/h (2 Bft) SO -2.2 C -2.7 C
28.12.2001 00:00 -0.6 C 91 % 1009.6 hPa 0.6 l/m 6.3 km/h (2 Bft) S -1.9 C -2.5 C
28.12.2001 01:00 -0.3 C 92 % 1009.5 hPa 0.6 l/m 11.7 km/h (2 Bft) S -1.3 C -3.8 C
28.12.2001 02:00 0.1 C 92 % 1008.7 hPa 0.9 l/m 16.0 km/h (3 Bft) S-SO -1.0 C -4.4 C
28.12.2001 03:00 0.4 C 92 % 1008.7 hPa 0.6 l/m 9.0 km/h (2 Bft) SO -0.7 C -2.1 C
28.12.2001 04:00 0.4 C 93 % 1008.7 hPa 1.6 l/m 1.3 km/h (1 Bft) O-SO -0.6 C 0.2 C
28.12.2001 05:00 0.5 C 95 % 1008.7 hPa 2.2 l/m 2.0 km/h (1 Bft) SO -0.3 C -0.1 C
28.12.2001 06:00 1.2 C 96 % 1008.7 hPa 1.6 l/m 7.6 km/h (2 Bft) W 0.6 C -0.9 C
28.12.2001 07:00 1.6 C 94 % 1008.7 hPa 1.6 l/m 10.2 km/h (2 Bft) W 0.8 C -1.2 C
28.12.2001 08:00 2.0 C 94 % 1008.7 hPa 0.9 l/m 21.7 km/h (4 Bft) W 1.1 C -2.9 C
28.12.2001 09:00 2.8 C 88 % 1008.7 hPa 0.0 l/m 17.6 km/h (3 Bft) W 1.0 C -1.1 C
28.12.2001 10:00 3.6 C 81 % 1008.7 hPa 0.0 l/m 16.0 km/h (3 Bft) W 0.6 C 0.3 C
28.12.2001 11:00 4.3 C 77 % 1008.5 hPa 0.0 l/m 23.4 km/h (4 Bft) W 0.5 C -0.2 C
28.12.2001 12:00 5.1 C 71 % 1007.6 hPa 0.0 l/m 21.7 km/h (4 Bft) W 0.2 C 1.0 C
28.12.2001 13:00 5.3 C 67 % 1007.0 hPa 0.0 l/m 20.9 km/h (4 Bft) W-SW -0.3 C 1.4 C
28.12.2001 14:00 5.8 C 66 % 1006.6 hPa 0.0 l/m 30.8 km/h (5 Bft) W 0.1 C 1.1 C
28.12.2001 15:00 6.0 C 67 % 1006.6 hPa 0.0 l/m 32.9 km/h (5 Bft) W 0.2 C 1.2 C
28.12.2001 16:00 5.3 C 72 % 1006.6 hPa 0.0 l/m 24.8 km/h (4 Bft) W 0.5 C 1.0 C
28.12.2001 17:00 5.7 C 68 % 1006.3 hPa 0.0 l/m 28.8 km/h (4 Bft) W 0.4 C 1.2 C
28.12.2001 18:00 6.7 C 63 % 1006.2 hPa 0.0 l/m 27.3 km/h (4 Bft) W 0.2 C 2.6 C
28.12.2001 19:00 6.4 C 66 % 1006.6 hPa 0.0 l/m 19.3 km/h (3 Bft) W 0.4 C 3.2 C
28.12.2001 20:00 6.4 C 66 % 1006.6 hPa 0.0 l/m 16.8 km/h (3 Bft) W 0.5 C 3.4 C
28.12.2001 21:00 6.4 C 67 % 1006.6 hPa 0.0 l/m 16.5 km/h (3 Bft) SW 0.8 C 3.4 C
28.12.2001 22:00 6.0 C 72 % 1006.6 hPa 0.0 l/m 17.0 km/h (3 Bft) W 1.3 C 3.0 C
28.12.2001 23:00 5.7 C 73 % 1006.6 hPa 0.0 l/m 12.6 km/h (3 Bft) W 1.2 C 3.1 C
29.12.2001 00:00 5.4 C 75 % 1006.6 hPa 0.6 l/m 13.0 km/h (3 Bft) W 1.3 C 2.8 C
29.12.2001 01:00 4.1 C 89 % 1005.7 hPa 1.3 l/m 3.1 km/h (1 Bft) W 2.5 C 3.5 C
29.12.2001 02:00 3.9 C 92 % 1005.6 hPa 2.2 l/m 0.3 km/h (0 Bft) N 2.7 C 3.9 C
29.12.2001 03:00 3.8 C 92 % 1004.6 hPa 1.3 l/m 5.1 km/h (1 Bft) W 2.7 C 2.9 C
29.12.2001 04:00 3.9 C 91 % 1003.3 hPa 1.3 l/m 13.8 km/h (3 Bft) W 2.7 C 0.9 C
29.12.2001 05:00 4.1 C 91 % 1002.1 hPa 1.3 l/m 6.7 km/h (2 Bft) W 2.8 C 2.7 C
29.12.2001 06:00 4.2 C 92 % 1001.1 hPa 1.3 l/m 8.9 km/h (2 Bft) SW 3.0 C 2.4 C
29.12.2001 07:00 4.4 C 91 % 1000.4 hPa 2.2 l/m 17.7 km/h (3 Bft) W 3.1 C 1.0 C
29.12.2001 08:00 4.6 C 93 % 1000.4 hPa 1.9 l/m 11.6 km/h (2 Bft) W 3.5 C 2.2 C
29.12.2001 09:00 5.1 C 93 % 999.5 hPa 2.2 l/m 7.0 km/h (2 Bft) W 4.1 C 3.7 C
29.12.2001 10:00 5.7 C 92 % 999.3 hPa 1.3 l/m 15.1 km/h (3 Bft) W 4.5 C 2.8 C
29.12.2001 11:00 6.1 C 91 % 998.3 hPa 1.9 l/m 13.9 km/h (3 Bft) W 4.8 C 3.4 C
29.12.2001 12:00 6.4 C 90 % 997.1 hPa 2.2 l/m 15.7 km/h (3 Bft) W 4.9 C 3.5 C
29.12.2001 13:00 6.4 C 90 % 996.0 hPa 2.8 l/m 19.4 km/h (3 Bft) W 4.9 C 3.0 C
29.12.2001 14:00 6.4 C 91 % 995.1 hPa 3.1 l/m 12.1 km/h (2 Bft) W 5.1 C 4.1 C
29.12.2001 15:00 6.4 C 91 % 994.1 hPa 2.5 l/m 23.9 km/h (4 Bft) W 5.0 C 2.6 C
29.12.2001 16:00 6.4 C 91 % 994.1 hPa 4.1 l/m 18.3 km/h (3 Bft) W 5.0 C 3.2 C
29.12.2001 17:00 6.1 C 91 % 993.6 hPa 2.8 l/m 20.3 km/h (4 Bft) W 4.8 C 2.6 C
29.12.2001 18:00 5.8 C 90 % 993.1 hPa 2.8 l/m 28.3 km/h (4 Bft) W 4.3 C 1.4 C
29.12.2001 19:00 5.6 C 90 % 993.1 hPa 2.8 l/m 19.6 km/h (3 Bft) W-SW 4.1 C 1.9 C
29.12.2001 20:00 5.3 C 90 % 992.1 hPa 2.2 l/m 26.6 km/h (4 Bft) W-SW 3.8 C 0.8 C
29.12.2001 21:00 4.9 C 90 % 992.0 hPa 2.8 l/m 21.8 km/h (4 Bft) W 3.4 C 0.8 C
29.12.2001 22:00 4.7 C 91 % 992.0 hPa 2.2 l/m 14.7 km/h (3 Bft) SW 3.3 C 1.5 C
29.12.2001 23:00 4.7 C 92 % 992.6 hPa 2.8 l/m 19.0 km/h (3 Bft) W-NW 3.4 C 1.3 C
30.12.2001 00:00 4.3 C 91 % 993.4 hPa 0.3 l/m 33.9 km/h (5 Bft) W-NW 2.9 C -1.2 C
30.12.2001 01:00 2.6 C 90 % 995.2 hPa 0.9 l/m 28.8 km/h (4 Bft) NW 1.2 C -2.8 C
30.12.2001 02:00 1.1 C 91 % 997.5 hPa 0.0 l/m 23.0 km/h (4 Bft) W-NW -0.2 C -4.0 C
30.12.2001 03:00 0.2 C 92 % 999.3 hPa 0.3 l/m 18.4 km/h (3 Bft) W-NW -0.8 C -4.4 C
30.12.2001 04:00 0.1 C 92 % 1000.7 hPa 0.0 l/m 27.5 km/h (4 Bft) W-NW -1.1 C -6.0 C
30.12.2001 05:00 -0.4 C 91 % 1002.3 hPa 0.0 l/m 22.0 km/h (4 Bft) W-NW -1.7 C -6.0 C
30.12.2001 06:00 -1.0 C 92 % 1003.8 hPa 0.0 l/m 20.0 km/h (4 Bft) W-NW -2.1 C -6.4 C
30.12.2001 07:00 -1.7 C 90 % 1005.1 hPa 0.0 l/m 8.9 km/h (2 Bft) W-NW -3.1 C -4.3 C
30.12.2001 08:00 -1.7 C 89 % 1006.3 hPa 0.0 l/m 18.9 km/h (3 Bft) W-NW -3.3 C -7.0 C
30.12.2001 09:00 -1.5 C 87 % 1007.5 hPa 0.0 l/m 6.7 km/h (2 Bft) W-NW -3.4 C -3.6 C
30.12.2001 10:00 -1.2 C 84 % 1008.0 hPa 0.0 l/m 3.1 km/h (1 Bft) W-NW -3.5 C -2.1 C
30.12.2001 11:00 -0.9 C 76 % 1008.7 hPa 0.0 l/m 12.2 km/h (2 Bft) W-NW -4.7 C -4.3 C
30.12.2001 12:00 -0.7 C 72 % 1008.7 hPa 0.0 l/m 10.4 km/h (2 Bft) W-NW -5.2 C -3.9 C
30.12.2001 13:00 -0.7 C 72 % 1008.6 hPa 0.0 l/m 18.7 km/h (3 Bft) W-SW -5.1 C -5.5 C
30.12.2001 14:00 -0.2 C 73 % 1008.7 hPa 0.0 l/m 16.5 km/h (3 Bft) W -4.5 C -4.6 C
30.12.2001 15:00 -0.2 C 72 % 1009.2 hPa 0.0 l/m 7.5 km/h (2 Bft) W -4.6 C -2.3 C
30.12.2001 16:00 -1.6 C 75 % 1009.7 hPa 0.0 l/m 6.5 km/h (2 Bft) W -5.4 C -3.6 C
30.12.2001 17:00 -3.2 C 81 % 1009.7 hPa 0.0 l/m 1.7 km/h (1 Bft) O-SO -5.9 C -3.6 C
30.12.2001 18:00 -3.6 C 82 % 1009.7 hPa 0.0 l/m 1.7 km/h (1 Bft) SW -6.2 C -3.9 C
30.12.2001 19:00 -3.8 C 79 % 1010.3 hPa 0.0 l/m 2.2 km/h (1 Bft) O-SO -6.9 C -4.4 C
30.12.2001 20:00 -4.0 C 78 % 1010.8 hPa 0.0 l/m 2.9 km/h (1 Bft) O-SO -7.3 C -5.2 C
30.12.2001 21:00 -4.2 C 76 % 1010.8 hPa 0.0 l/m 6.3 km/h (2 Bft) SO -7.8 C -6.7 C
30.12.2001 22:00 -4.6 C 77 % 1010.8 hPa 0.0 l/m 5.8 km/h (2 Bft) SO -7.9 C -6.9 C
30.12.2001 23:00 -4.8 C 80 % 1011.4 hPa 0.0 l/m 6.7 km/h (2 Bft) O-SO -7.6 C -7.7 C
Min-Datum _ 24.12.01 24.12.01 29.12.01 - 24.12.01 - 24.12.01 24.12.01
_ Min-Zeit 05:36 14:18 21:00 - 00:15 - 05:45 04:45
Minimum _ -16.6 C 56 % 992.0 hPa - 0.0 km/h (0 Bft) - -20.2 C -21.7 C
Max-Datum _ 28.12.01 26.12.01 24.12.01 29.12.01 28.12.01 - 29.12.01 28.12.01
_ Max-Zeit 18:13 02:47 00:00 15:00 15:13 - 14:59 19:40
Maximum _ 6.9 C 97 % 1018.1 hPa 4.1 l/m 56.3 km/h
W (7 Bft)
- 5.3 C 6.4 C
Durchschnitt _ -0.7 C 79 % 1006.9 hPa #78.3 l/m 12.3 km/h (3 Bft) W-NW -3.9 C -3.6 C

Durchschnitt Minimum Temp.-1.1 C
Durchschnitt Maximum Temp.-0.2 C
© Kaiko 2001